Time;durP1;ratioP1;P1;durP2;ratioP2;P2;SDS_P1;SDS_P2;PMS_P1;PMS_P2;Temp;Humidity;BMP_temperature;BMP_pressure;BME280_temperature;BME280_humidity;BME280_pressure;Samples;Min_cycle;Max_cycle;Signal;HPM_P1;HPM_P2
2023/09/27 00:00:37;;;;;;;16.60;11.60;;;;;;;13.43;100.00;99837.35;270269;1269;131245;-85
2023/09/27 00:07:01;;;;;;;17.60;10.50;;;;;;;13.38;100.00;99836.75;272090;1269;22539;-82
2023/09/27 00:13:25;;;;;;;17.20;11.60;;;;;;;13.25;100.00;99835.39;272121;1269;22448;-82
2023/09/27 00:20:11;;;;;;;13.50;10.50;;;;;;;13.08;100.00;99835.77;273939;1273;22163;-82
2023/09/27 00:26:49;;;;;;;20.50;10.20;;;;;;;13.00;100.00;99844.44;270312;1269;22553;-83
2023/09/27 00:33:32;;;;;;;19.60;11.80;;;;;;;12.92;100.00;99842.65;270425;1269;22377;-83
2023/09/27 00:40:47;;;;;;;18.80;12.90;;;;;;;12.81;100.00;99852.21;273400;1269;23622;-83
2023/09/27 00:55:00;;;;;;;36.60;14.70;;;;;;;12.69;100.00;99852.41;273152;1269;22663;-83
2023/09/27 01:01:32;;;;;;;20.20;14.40;;;;;;;12.59;100.00;99847.23;273318;1265;22153;-83
2023/09/27 01:08:30;;;;;;;20.20;14.10;;;;;;;12.54;100.00;99847.23;273504;1267;22192;-83
2023/09/27 01:15:00;;;;;;;15.00;10.40;;;;;;;12.52;100.00;99851.60;273934;1269;22375;-83
2023/09/27 01:28:13;;;;;;;14.40;10.20;;;;;;;12.44;100.00;99855.69;271821;1269;22559;-83
2023/09/27 01:34:16;;;;;;;18.80;11.50;;;;;;;12.45;100.00;99855.70;273892;1273;22199;-84
2023/09/27 01:40:44;;;;;;;16.30;11.60;;;;;;;12.43;100.00;99857.08;271907;1269;23099;-84
2023/09/27 01:46:53;;;;;;;18.40;12.80;;;;;;;12.44;100.00;99859.30;271351;1269;22414;-84
2023/09/27 01:53:15;;;;;;;12.30;10.40;;;;;;;12.36;100.00;99856.59;273591;1268;23114;-84
2023/09/27 02:00:10;;;;;;;23.50;11.30;;;;;;;12.37;100.00;99854.86;273649;1269;22422;-84
2023/09/27 02:06:20;;;;;;;16.80;12.10;;;;;;;12.41;100.00;99856.50;273220;1269;22533;-84
2023/09/27 02:12:44;;;;;;;;;;;;;;;12.42;100.00;99857.68;272723;1269;22557;-84
2023/09/27 02:19:27;;;;;;;17.80;12.20;;;;;;;12.41;100.00;99853.92;271367;1269;22543;-84
2023/09/27 02:25:57;;;;;;;20.50;13.60;;;;;;;12.39;100.00;99849.79;272939;1269;22223;-84
2023/09/27 02:31:59;;;;;;;21.20;12.90;;;;;;;12.29;100.00;99847.03;273019;1269;22391;-84
2023/09/27 02:38:01;;;;;;;29.20;13.60;;;;;;;12.26;100.00;99849.02;271955;1269;23789;-84
2023/09/27 02:44:03;;;;;;;24.50;14.40;;;;;;;12.25;100.00;99849.63;273345;1269;22203;-84
2023/09/27 02:50:10;;;;;;;25.00;14.10;;;;;;;12.25;100.00;99846.09;271895;1262;26238;-83
2023/09/27 02:56:32;;;;;;;25.40;14.80;;;;;;;12.18;100.00;99845.50;270971;1257;25255;-83
2023/09/27 03:02:34;;;;;;;33.50;15.00;;;;;;;12.10;100.00;99850.13;271909;1263;22488;-85
2023/09/27 03:08:35;;;;;;;41.50;15.00;;;;;;;12.03;100.00;99854.01;272606;1269;23512;-83
2023/09/27 03:14:37;;;;;;;25.10;13.30;;;;;;;12.00;100.00;99855.05;273177;1260;22565;-84
2023/09/27 03:21:01;;;;;;;22.50;13.50;;;;;;;11.94;100.00;99854.08;273007;1269;22362;-84
2023/09/27 03:27:26;;;;;;;19.60;13.00;;;;;;;11.86;100.00;99857.20;273972;1269;22190;-85
2023/09/27 03:33:28;;;;;;;24.70;13.80;;;;;;;11.75;100.00;99863.73;272796;1269;22403;-84
2023/09/27 03:39:59;;;;;;;16.90;12.50;;;;;;;11.67;100.00;99868.26;272561;1269;22294;-84
2023/09/27 03:46:05;;;;;;;17.20;13.00;;;;;;;11.72;100.00;99876.90;271947;1256;23758;-84
2023/09/27 03:52:08;;;;;;;20.40;13.10;;;;;;;11.76;100.00;99878.09;273781;1269;23475;-84
2023/09/27 04:05:31;;;;;;;16.50;12.40;;;;;;;11.73;100.00;99871.44;273490;1257;22482;-84
2023/09/27 04:11:33;;;;;;;18.50;13.10;;;;;;;11.79;100.00;99872.36;270565;1269;22514;-84
2023/09/27 04:17:35;;;;;;;17.50;11.80;;;;;;;11.77;100.00;99867.68;271998;1269;22611;-83
2023/09/27 04:23:57;;;;;;;14.50;11.90;;;;;;;11.74;100.00;99869.42;270797;1269;22529;-83
2023/09/27 04:30:11;;;;;;;18.90;12.60;;;;;;;11.77;100.00;99872.86;272079;1266;22441;-83
2023/09/27 04:36:51;;;;;;;16.70;10.70;;;;;;;11.78;100.00;99870.91;272798;1269;22568;-83
2023/09/27 04:42:53;;;;;;;18.00;13.20;;;;;;;11.80;100.00;99872.75;270732;1269;23908;-83
2023/09/27 04:48:55;;;;;;;18.80;11.80;;;;;;;11.82;100.00;99876.02;272379;1269;22408;-83
2023/09/27 04:55:44;;;;;;;21.40;12.70;;;;;;;11.77;100.00;99881.87;273071;1270;22543;-84
2023/09/27 05:02:41;;;;;;;14.20;11.30;;;;;;;11.71;100.00;99881.52;271238;1269;22585;-84
2023/09/27 05:09:27;;;;;;;15.30;11.10;;;;;;;11.71;100.00;99886.77;272948;1269;22395;-83
2023/09/27 05:16:07;;;;;;;15.30;10.40;;;;;;;11.69;100.00;99887.41;274026;1275;23955;-83
2023/09/27 05:22:17;;;;;;;14.80;10.50;;;;;;;11.68;100.00;99888.73;274010;1253;22157;-83
2023/09/27 05:29:13;;;;;;;15.70;10.60;;;;;;;11.72;100.00;99891.48;273702;1269;22199;-83
2023/09/27 05:35:53;;;;;;;19.30;13.20;;;;;;;11.87;100.00;99901.77;273917;1269;22176;-83
2023/09/27 05:42:20;;;;;;;17.20;12.60;;;;;;;12.04;100.00;99908.37;273670;1269;22203;-83
2023/09/27 05:49:07;;;;;;;16.40;12.40;;;;;;;12.28;100.00;99914.55;273704;1269;22387;-83
2023/09/27 05:56:07;;;;;;;16.30;11.40;;;;;;;12.84;100.00;99910.28;274005;1275;22247;-83
2023/09/27 06:02:32;;;;;;;13.60;10.40;;;;;;;13.29;100.00;99906.84;273811;1269;22234;-83
2023/09/27 06:08:44;;;;;;;17.40;11.50;;;;;;;13.68;100.00;99909.35;273937;1272;22250;-83
2023/09/27 06:14:46;;;;;;;15.20;10.70;;;;;;;14.02;100.00;99913.10;273900;1269;22197;-83
2023/09/27 06:21:27;;;;;;;16.60;12.00;;;;;;;14.18;100.00;99914.69;272422;1269;22390;-83
2023/09/27 06:27:31;;;;;;;21.80;13.40;;;;;;;14.33;100.00;99915.27;272681;1268;22407;-83
2023/09/27 06:33:34;;;;;;;28.80;14.60;;;;;;;14.48;100.00;99920.72;272173;1269;22487;-83
2023/09/27 06:47:04;;;;;;;18.80;10.90;;;;;;;14.73;100.00;99925.70;270172;1270;22380;-84
2023/09/27 06:53:31;;;;;;;12.90;10.30;;;;;;;14.84;100.00;99927.27;273895;1269;23290;-84
2023/09/27 07:00:35;;;;;;;16.70;10.50;;;;;;;14.94;100.00;99929.64;273920;1269;22210;-84
2023/09/27 07:07:22;;;;;;;18.10;10.50;;;;;;;15.10;100.00;99931.10;272678;1269;22487;-84
2023/09/27 07:13:23;;;;;;;13.50;10.40;;;;;;;15.21;100.00;99939.08;272427;1269;22528;-84
2023/09/27 07:19:26;;;;;;;15.10;10.10;;;;;;;15.35;100.00;99945.19;272408;1269;25409;-84
2023/09/27 07:26:04;;;;;;;18.00;11.30;;;;;;;15.51;100.00;99949.65;273447;1269;22486;-84
2023/09/27 07:32:31;;;;;;;15.40;10.20;;;;;;;15.77;100.00;99952.94;273890;1263;22183;-83
2023/09/27 07:38:32;;;;;;;19.10;11.20;;;;;;;16.14;100.00;99957.53;273934;1269;22141;-84
2023/09/27 07:44:34;;;;;;;22.50;11.60;;;;;;;16.53;100.00;99961.86;273806;1269;22395;-83
2023/09/27 07:50:37;;;;;;;14.00;9.30;;;;;;;16.93;100.00;99960.67;273932;1271;23054;-83
2023/09/27 07:56:39;;;;;;;11.60;8.30;;;;;;;17.34;100.00;99964.80;273632;1267;22354;-83
2023/09/27 08:02:50;;;;;;;11.30;9.00;;;;;;;17.75;100.00;99965.39;273985;1273;22199;-84
2023/09/27 08:09:14;;;;;;;13.40;8.10;;;;;;;18.18;100.00;99960.65;273752;1269;23510;-83
2023/09/27 08:15:58;;;;;;;12.30;7.90;;;;;;;18.57;100.00;99958.98;273980;1275;22289;-83
2023/09/27 08:22:41;;;;;;;12.40;8.80;;;;;;;19.01;100.00;99958.77;273775;1269;22291;-83
2023/09/27 08:28:43;;;;;;;11.80;8.00;;;;;;;19.38;100.00;99963.00;273749;1269;22270;-83
2023/09/27 08:35:06;;;;;;;12.10;7.40;;;;;;;19.79;100.00;99963.77;273733;1269;22374;-84
2023/09/27 08:41:08;;;;;;;7.90;6.80;;;;;;;20.27;100.00;99959.50;273657;1269;22764;-84
2023/09/27 08:47:11;;;;;;;9.60;7.20;;;;;;;20.99;100.00;99956.41;273632;1269;22193;-84
2023/09/27 08:53:42;;;;;;;11.20;6.90;;;;;;;21.94;100.00;99952.60;273702;1262;22228;-84
2023/09/27 09:00:41;;;;;;;12.30;6.50;;;;;;;22.92;100.00;99948.35;273791;1269;22846;-84
2023/09/27 09:07:11;;;;;;;12.50;6.10;;;;;;;24.03;100.00;99944.88;273564;1269;22276;-84
2023/09/27 09:14:21;;;;;;;13.30;6.90;;;;;;;24.94;100.00;99940.00;273862;1270;22267;-84
2023/09/27 09:20:48;;;;;;;10.10;5.70;;;;;;;25.86;100.00;99948.50;273199;1269;22611;-84
2023/09/27 09:27:37;;;;;;;12.10;5.70;;;;;;;26.81;100.00;99944.90;271848;1269;24271;-84
2023/09/27 09:33:46;;;;;;;7.30;5.30;;;;;;;27.41;99.25;99936.53;268892;1278;22212;-84
2023/09/27 09:40:15;;;;;;;11.30;5.20;;;;;;;28.03;96.81;99932.82;273940;1270;22166;-84
2023/09/27 09:46:39;;;;;;;9.50;4.90;;;;;;;28.89;94.26;99933.77;271905;1262;22546;-84
2023/09/27 09:52:41;;;;;;;9.60;4.50;;;;;;;29.08;90.30;99931.25;271700;1269;22208;-84
2023/09/27 09:59:21;;;;;;;9.00;4.40;;;;;;;29.57;86.99;99926.85;271529;1269;22542;-85
2023/09/27 10:05:57;;;;;;;6.40;3.90;;;;;;;30.04;83.58;99924.34;270285;1269;22854;-84
2023/09/27 10:11:59;;;;;;;8.70;4.30;;;;;;;30.09;80.53;99920.69;273576;1269;23164;-84
2023/09/27 10:18:33;;;;;;;8.00;4.50;;;;;;;30.23;77.92;99925.08;272179;1269;22375;-85
2023/09/27 10:24:57;;;;;;;6.50;4.10;;;;;;;30.50;75.78;99920.93;272711;1269;22541;-83
2023/09/27 10:31:06;;;;;;;11.50;5.30;;;;;;;30.60;72.10;99919.80;270121;1269;25405;-85
2023/09/27 10:37:37;;;;;;;11.70;5.30;;;;;;;30.55;70.07;99918.80;271774;1269;22531;-84
2023/09/27 10:43:43;;;;;;;12.20;5.00;;;;;;;30.40;67.41;99915.93;273650;1269;22199;-85
2023/09/27 10:50:04;;;;;;;11.50;4.60;;;;;;;30.09;66.11;99909.55;270841;1269;22586;-85
2023/09/27 10:56:29;;;;;;;12.80;5.00;;;;;;;29.97;64.70;99896.42;270642;1269;22555;-84
2023/09/27 11:02:57;;;;;;;10.20;4.70;;;;;;;29.77;63.95;99898.61;272462;1270;22307;-84
2023/09/27 11:09:06;;;;;;;10.00;4.00;;;;;;;29.34;62.71;99893.77;271915;1263;22444;-84
2023/09/27 11:15:10;;;;;;;11.30;4.00;;;;;;;29.04;62.20;99884.48;273464;1269;22509;-85
2023/09/27 11:29:24;;;;;;;9.60;4.50;;;;;;;28.33;59.68;99875.85;273157;1270;23113;-84
2023/09/27 11:35:37;;;;;;;11.30;5.10;;;;;;;28.01;59.34;99875.12;272173;1269;22299;-84
2023/09/27 11:42:23;;;;;;;9.80;4.00;;;;;;;27.78;57.18;99874.39;273871;1272;22270;-84
2023/09/27 11:55:54;;;;;;;4.70;3.50;;;;;;;27.04;54.31;99859.31;273882;1269;22188;-82
2023/09/27 12:02:37;;;;;;;8.00;3.90;;;;;;;26.69;52.91;99856.27;273323;1269;22548;-84
2023/09/27 12:08:40;;;;;;;6.50;3.80;;;;;;;26.46;51.84;99856.30;272707;1269;22550;-84
2023/09/27 12:14:44;;;;;;;10.30;4.30;;;;;;;26.30;51.54;99850.61;273012;1269;22230;-84
2023/09/27 12:21:11;;;;;;;10.50;4.30;;;;;;;26.11;52.42;99842.89;273649;1269;22187;-83
2023/09/27 12:28:06;;;;;;;7.10;3.60;;;;;;;25.96;52.94;99838.19;273819;1262;23000;-84
2023/09/27 12:34:08;;;;;;;9.20;4.10;;;;;;;25.81;53.44;99832.25;273953;1269;22184;-84
2023/09/27 12:40:11;;;;;;;7.80;4.30;;;;;;;25.69;53.45;99827.75;273947;1275;22247;-83
2023/09/27 12:46:36;;;;;;;11.20;4.80;;;;;;;25.59;53.72;99829.08;273687;1269;22174;-83
2023/09/27 12:53:06;;;;;;;8.30;4.30;;;;;;;25.61;53.74;99831.98;273883;1267;23692;-84
2023/09/27 12:59:56;;;;;;;8.20;4.20;;;;;;;25.55;54.16;99822.75;273907;1269;22254;-83
2023/09/27 13:06:30;;;;;;;6.20;3.80;;;;;;;25.47;54.61;99816.79;273637;1269;22265;-84
2023/09/27 13:12:57;;;;;;;;;;;;;;;25.43;54.33;99812.21;273865;1270;22424;-83
2023/09/27 13:19:28;;;;;;;9.30;4.50;;;;;;;25.27;54.52;99805.56;273866;1269;22773;-84
2023/09/27 13:26:14;;;;;;;6.80;4.70;;;;;;;25.20;54.90;99800.94;273957;1275;22236;-83
2023/09/27 13:32:52;;;;;;;9.50;4.00;;;;;;;25.10;55.68;99790.82;273990;1270;22167;-83
2023/09/27 13:38:56;;;;;;;8.30;4.60;;;;;;;25.01;56.12;99787.90;271681;1270;22764;-83
2023/09/27 13:45:21;;;;;;;9.50;4.90;;;;;;;24.87;56.98;99780.96;273012;1269;22440;-83
2023/09/27 13:51:48;;;;;;;5.80;4.70;;;;;;;24.85;57.90;99773.91;273873;1270;22204;-83
2023/09/27 13:58:31;;;;;;;8.30;5.10;;;;;;;24.80;58.87;99770.91;273960;1272;22353;-84
2023/09/27 14:05:18;;;;;;;8.30;4.70;;;;;;;24.66;58.55;99760.00;273786;1270;22262;-83
2023/09/27 14:11:40;;;;;;;7.50;3.90;;;;;;;24.54;58.42;99751.66;273948;1273;22209;-84
2023/09/27 14:17:42;;;;;;;8.70;4.00;;;;;;;24.46;58.34;99746.71;273822;1269;22107;-83
2023/09/27 14:24:04;;;;;;;6.20;4.20;;;;;;;24.44;58.58;99744.73;273935;1275;23896;-83
2023/09/27 14:30:06;;;;;;;8.30;4.50;;;;;;;24.35;59.23;99741.66;271493;1269;22764;-83
2023/09/27 14:36:32;;;;;;;11.10;4.70;;;;;;;24.26;59.50;99737.32;271558;1269;22386;-83
2023/09/27 14:50:33;;;;;;;10.10;5.10;;;;;;;24.03;60.73;99732.88;271224;1272;22608;-83
2023/09/27 14:56:37;;;;;;;8.30;5.30;;;;;;;23.94;61.75;99728.65;270728;1267;22647;-83
2023/09/27 15:02:41;;;;;;;8.30;5.50;;;;;;;23.89;62.00;99726.33;271708;1269;22620;-83
2023/09/27 15:08:50;;;;;;;9.70;4.60;;;;;;;23.84;62.18;99723.77;271345;1269;22284;-86
2023/09/27 15:14:55;;;;;;;8.70;4.80;;;;;;;23.75;62.15;99717.74;272190;1269;22528;-85
2023/09/27 15:21:22;;;;;;;9.10;4.90;;;;;;;23.67;62.45;99711.45;272402;1269;23149;-83
2023/09/27 15:27:48;;;;;;;10.10;4.80;;;;;;;23.57;62.83;99709.75;273924;1269;22181;-83
2023/09/27 15:33:57;;;;;;;9.20;5.20;;;;;;;23.43;63.50;99707.54;273980;1273;22383;-84
2023/09/27 15:40:21;;;;;;;12.50;4.80;;;;;;;23.28;64.19;99708.15;273916;1275;22279;-83
2023/09/27 15:47:09;;;;;;;11.30;5.30;;;;;;;23.10;65.07;99708.95;273833;1269;23217;-83
2023/09/27 15:53:15;;;;;;;9.20;5.10;;;;;;;22.89;66.26;99707.79;273797;1268;22718;-83
2023/09/27 15:59:19;;;;;;;10.30;5.70;;;;;;;22.62;67.55;99705.96;273657;1269;23218;-83
2023/09/27 16:05:51;;;;;;;13.30;6.40;;;;;;;22.35;69.19;99704.55;274023;1269;22197;-82
2023/09/27 16:12:46;;;;;;;10.90;6.30;;;;;;;22.07;70.47;99702.41;273864;1269;22224;-83
2023/09/27 16:19:35;;;;;;;13.50;6.90;;;;;;;21.82;72.17;99704.98;273500;1269;22192;-83
2023/09/27 16:25:37;;;;;;;14.40;7.50;;;;;;;21.57;73.19;99704.66;273652;1269;23373;-83
2023/09/27 16:31:42;;;;;;;14.20;6.80;;;;;;;21.35;74.02;99699.23;273593;1276;22215;-82
2023/09/27 16:38:09;;;;;;;12.60;6.20;;;;;;;21.16;74.73;99699.08;273968;1273;22568;-83
2023/09/27 16:44:11;;;;;;;18.30;7.00;;;;;;;20.91;75.43;99694.77;273800;1270;23050;-83
2023/09/27 16:50:33;;;;;;;11.30;6.40;;;;;;;20.66;76.05;99689.70;273849;1269;22170;-83
2023/09/27 16:57:03;;;;;;;15.90;8.00;;;;;;;20.45;76.58;99687.30;273957;1269;22428;-82
2023/09/27 17:03:25;;;;;;;24.40;13.70;;;;;;;20.33;76.99;99683.06;274030;1257;23099;-83
2023/09/27 17:09:27;;;;;;;19.90;13.30;;;;;;;20.23;78.13;99679.52;271192;1269;22570;-83
2023/09/27 17:15:28;;;;;;;20.70;13.10;;;;;;;20.04;79.30;99680.49;271293;1268;22713;-83
2023/09/27 17:22:11;;;;;;;14.70;10.30;;;;;;;19.75;80.93;99683.58;271406;1269;23375;-83
2023/09/27 17:28:42;;;;;;;21.00;13.20;;;;;;;19.42;82.62;99680.55;271735;1269;22677;-84
2023/09/27 17:34:44;;;;;;;16.90;10.90;;;;;;;19.21;83.73;99677.64;271879;1269;22399;-83
2023/09/27 17:41:26;;;;;;;28.00;16.80;;;;;;;18.96;84.94;99677.72;273855;1269;22219;-84
2023/09/27 17:48:19;;;;;;;19.10;12.00;;;;;;;18.75;85.63;99677.40;273805;1268;22297;-84
2023/09/27 17:55:23;;;;;;;19.70;11.20;;;;;;;18.53;86.38;99670.59;273932;1269;22175;-83
2023/09/27 18:01:25;;;;;;;17.90;11.80;;;;;;;18.34;87.82;99670.27;273588;1269;23826;-83
2023/09/27 18:07:28;;;;;;;17.20;12.50;;;;;;;18.22;88.36;99665.39;273655;1264;22176;-84
2023/09/27 18:21:29;;;;;;;28.80;13.60;;;;;;;18.04;89.62;99663.17;273876;1270;22352;-83
2023/09/27 18:27:31;;;;;;;20.30;12.90;;;;;;;17.92;90.35;99661.68;273685;1269;22218;-83
2023/09/27 18:34:14;;;;;;;14.90;12.00;;;;;;;17.69;91.13;99657.50;273926;1275;22166;-83
2023/09/27 18:40:57;;;;;;;27.60;14.40;;;;;;;17.46;92.18;99657.96;272314;1269;22469;-83
2023/09/27 18:46:59;;;;;;;17.70;12.20;;;;;;;17.34;93.32;99663.48;273671;1268;22218;-83
2023/09/27 18:53:09;;;;;;;19.70;12.70;;;;;;;17.33;94.44;99664.02;273714;1268;22202;-83
2023/09/27 18:59:52;;;;;;;22.80;12.60;;;;;;;17.31;94.99;99665.93;274048;1269;23256;-83
2023/09/27 19:06:20;;;;;;;22.20;12.20;;;;;;;17.21;95.43;99664.88;273868;1253;22208;-83
2023/09/27 19:12:21;;;;;;;21.60;14.40;;;;;;;17.10;95.84;99661.77;273652;1269;22996;-84
2023/09/27 19:18:48;;;;;;;19.30;14.10;;;;;;;16.99;96.37;99658.82;273832;1268;22163;-83
2023/09/27 19:24:53;;;;;;;27.70;16.00;;;;;;;16.85;96.85;99660.54;273730;1269;22387;-84
2023/09/27 19:30:55;;;;;;;23.30;15.30;;;;;;;16.71;97.25;99663.27;273879;1269;22256;-83
2023/09/27 19:37:47;;;;;;;23.90;15.20;;;;;;;16.57;97.86;99662.67;273698;1269;22433;-83
2023/09/27 19:44:04;;;;;;;27.40;16.60;;;;;;;16.44;98.42;99658.83;273835;1269;23228;-83
2023/09/27 19:50:08;;;;;;;20.00;15.20;;;;;;;16.34;98.99;99664.12;273775;1269;22089;-83
2023/09/27 19:56:35;;;;;;;18.10;15.10;;;;;;;16.23;99.44;99664.20;273818;1269;22801;-83
2023/09/27 20:02:37;;;;;;;27.00;16.60;;;;;;;16.16;99.99;99666.89;273828;1272;22184;-83
2023/09/27 20:08:58;;;;;;;23.00;15.20;;;;;;;16.09;100.00;99666.73;273834;1269;22787;-83
2023/09/27 20:15:41;;;;;;;25.10;15.70;;;;;;;16.04;100.00;99663.89;273862;1269;23319;-83
2023/09/27 20:22:48;;;;;;;25.40;16.60;;;;;;;16.01;100.00;99659.48;272129;1278;23395;-83
2023/09/27 20:29:03;;;;;;;18.10;12.90;;;;;;;15.88;100.00;99654.50;271956;1278;22268;-83
2023/09/27 20:35:06;;;;;;;23.40;15.50;;;;;;;15.73;100.00;99655.91;271860;1278;22558;-83
2023/09/27 20:41:47;;;;;;;22.70;16.70;;;;;;;15.67;100.00;99655.28;269861;1272;26534;-83
2023/09/27 20:47:49;;;;;;;23.20;16.10;;;;;;;15.56;100.00;99654.88;269299;1269;22562;-84
2023/09/27 20:53:50;;;;;;;24.50;15.90;;;;;;;15.43;100.00;99661.54;270287;1272;24095;-83
2023/09/27 21:00:13;;;;;;;28.80;17.60;;;;;;;15.30;100.00;99661.02;272711;1259;22300;-83
2023/09/27 21:06:25;;;;;;;24.90;17.10;;;;;;;15.18;100.00;99658.14;273147;1272;22270;-83
2023/09/27 21:12:49;;;;;;;25.80;16.70;;;;;;;15.10;100.00;99662.21;272899;1272;22378;-83
2023/09/27 21:18:52;;;;;;;25.40;17.00;;;;;;;15.02;100.00;99657.21;273606;1269;23342;-83
2023/09/27 21:25:39;;;;;;;21.80;16.10;;;;;;;14.97;100.00;99649.55;273831;1269;22267;-83
2023/09/27 21:31:42;;;;;;;22.50;12.90;;;;;;;14.85;100.00;99647.15;273173;1269;22544;-83
2023/09/27 21:38:13;;;;;;;27.50;15.60;;;;;;;14.69;100.00;99645.02;270598;1269;22544;-83
2023/09/27 21:44:22;;;;;;;23.30;16.50;;;;;;;14.53;100.00;99639.90;273779;1269;22173;-83
2023/09/27 21:50:51;;;;;;;20.30;14.70;;;;;;;14.45;100.00;99642.60;273908;1269;22172;-83
2023/09/27 21:56:53;;;;;;;18.20;12.10;;;;;;;14.39;100.00;99634.62;273648;1269;22164;-82
2023/09/27 22:03:50;;;;;;;19.40;14.40;;;;;;;14.31;100.00;99637.41;273686;1269;22309;-83
2023/09/27 22:10:42;;;;;;;23.80;13.10;;;;;;;14.20;100.00;99634.88;272409;1269;25123;-83
2023/09/27 22:17:08;;;;;;;21.00;15.40;;;;;;;14.10;100.00;99633.30;271365;1269;23449;-83
2023/09/27 22:23:32;;;;;;;18.50;14.70;;;;;;;13.95;100.00;99629.11;270389;1271;23691;-83
2023/09/27 22:29:38;;;;;;;17.80;12.70;;;;;;;13.78;100.00;99623.70;270555;1269;24399;-83
2023/09/27 22:36:00;;;;;;;15.40;10.80;;;;;;;13.68;100.00;99626.36;271119;1269;22588;-83
2023/09/27 22:42:42;;;;;;;16.40;10.90;;;;;;;13.56;100.00;99621.92;272499;1269;22243;-83
2023/09/27 22:48:44;;;;;;;18.50;13.60;;;;;;;13.49;100.00;99624.55;270777;1269;26526;-84
2023/09/27 22:55:28;;;;;;;22.80;15.50;;;;;;;13.40;100.00;99627.60;271904;1269;22212;-82
2023/09/27 23:02:11;;;;;;;18.10;12.80;;;;;;;13.34;100.00;99627.23;273768;1256;23201;-82
2023/09/27 23:08:37;;;;;;;19.60;12.90;;;;;;;13.27;100.00;99627.55;273715;1269;22427;-82
2023/09/27 23:15:12;;;;;;;17.60;13.00;;;;;;;13.14;100.00;99623.09;273070;1253;22410;-82
2023/09/27 23:21:56;;;;;;;21.70;11.00;;;;;;;13.08;100.00;99620.04;273712;1269;22188;-82
2023/09/27 23:35:56;;;;;;;22.30;13.40;;;;;;;13.00;100.00;99617.11;272770;1269;22466;-82
2023/09/27 23:42:26;;;;;;;21.70;13.00;;;;;;;12.81;100.00;99618.29;273089;1269;22219;-82
2023/09/27 23:48:28;;;;;;;20.40;14.10;;;;;;;12.69;100.00;99615.55;273554;1269;22452;-82
2023/09/27 23:54:55;;;;;;;21.30;15.60;;;;;;;12.54;100.00;99619.13;273640;1269;22218;-82
